Ashmore, Illinois
Current Conditions -  °F | °C
As of 11:53 AM on Friday 21 Nov 2014 (Local Time) from KMTO Reporting Station
Clear Clear  
Wind Chill: 24°   Ceiling: Unl
Heat Index: 32°   Visibility: 10mi
Dew Point: 12°   Wind: 9mph
Humidity: 44%   Direction: 130°SE
Pressure: 30.43"   Gusts: NA
Location:  39.53°N, 88.02°W
Report Text: KMTO 211753Z AUTO 13008KT 10SM CLR 00/M11 A3043 RMK AO2 SLP313 T00001111 10000 21106 58012
Loading
Personal Weather Stations






























Interactive Weather Map New forecast layout! Learn more

10-Day Weather Forecast

Advertisements
Track Severe Weather on mobile